Terminal Aerodrome Forecast
Issued by NWS

Home | Current Version | Previous Version | Text Only | Print | Product List | Glossary On
Versions: 1 2 3 4 5 6 7 8 9 10 11 12 13 14 15 16 17 18 19 20 21 22 23 24 25 26
000
FTUS42 KGSP 291731
TAFHKY
TAF
KHKY 291731Z 2918/3018 18003KT P6SM SCT170 BKN250
     FM300000 00000KT P6SM BKN160 OVC250
     FM300700 00000KT P6SM BKN110 OVC200=

USA.gov is the U.S. government's official web portal to all federal, state and local government web resources and services.